AirNav   Air Wisconsin Up To $57,000 Bonus
 
 521 users online  

SC84 Sand Burr Airport
Gilbert, South Carolina, USA


FAA INFORMATION EFFECTIVE 03 NOVEMBER 2022

Location

FAA Identifier: SC84
Lat/Long: 33-50-47.2550N 081-22-52.7050W
33-50.787583N 081-22.878417W
33.8464597,-81.3813069
(estimated)
Elevation: 499 ft. / 152 m (estimated)
From city: 5 miles S of GILBERT, SC
Time zone: UTC -5 (UTC -4 during Daylight Saving Time)
Zip code: 29070

Airport Operations

Airport use: Private use. Permission required prior to landing
Activation date: 12/2021
Control tower: no
ARTCC: JACKSONVILLE CENTER
FSS: ANDERSON FLIGHT SERVICE STATION
Attendance: 
Segmented circle: no

Airport Communications

CTAF: 122.9
WX ASOS at CAE (14 nm NE): 120.15 (803-822-4168)
WX AWOS-3 at AIK (19 nm SW): 118.025 (803-643-8664)

Nearby radio navigation aids

VOR radial/distance  VOR name  Freq  Var
CAEr270/16.3COLUMBIA VORTAC114.7002W
MMTr269/29.2MC ENTIRE VORTAC113.2008W
IRQr082/39.8COLLIERS VORTAC113.9004W

 
NDB name  Hdg/Dist  Freq  Var  ID
AIKEN058/18.834706WAIK .- .. -.-
ENOREE163/30.627807WEOE . --- .
EMORY057/38.438504WEMR . -- .-.

Airport Services

Runway Information

Runway 17/35

Dimensions: 3072 x 60 ft. / 936 x 18 m
Surface: turf
RUNWAY 17  RUNWAY 35
Latitude: 33-51.029000N33-50.546167N
Longitude: 081-22.970167W081-22.786667W
Elevation: 486.0 ft.497.0 ft.
Traffic pattern: rightleft

Airport Ownership and Management from official FAA records

Ownership: Privately-owned
Owner: CHRIS KELLEY
1337 MARTIN SMITH RD
GILBERT, SC 29054
Phone 205-706-9524
Manager: CHRIS KELLEY
1337 MARTIN SMITH RD
GILBERT, SC 29504
Phone 205-706-9524
KF4FHL@GMAIL.COM

Airport Operational Statistics

Aircraft based on the field: 1
Single engine airplanes: 1
    

Instrument Procedures

There are no published instrument procedures at SC84.

Some nearby airports with instrument procedures:

6J0 - Lexington County Airport (7 nm SE)
KCAE - Columbia Metro Airport (14 nm NE)
KAIK - Aiken Regional Airport (19 nm SW)
KCUB - Jim Hamilton L B Owens Airport (21 nm E)
KXNO - North Air Force Auxiliary Field (21 nm SE)
 
Loc | Ops | Rwys | IFR | FBO | Links
Com | Nav | Svcs | Stats | Notes
Aerial photo
No photo
 
Airport distance calculator
Flying to Sand Burr Airport? Find the distance to fly.

From to SC84

Sunrise and sunset
Times for 27-Nov-2022
 Local
(UTC-5)
 Zulu
(UTC)
Morning civil twilight06:4311:43
Sunrise07:1012:10
Sunset17:1622:16
Evening civil twilight17:4422:44

Current date and time
Zulu (UTC)  27-Nov-2022 11:48:35
Local (UTC-5)  27-Nov-2022 06:48:35
 
METAR
KCAE 
14nm E 
271111Z 12004KT 3/4SM -RA BR VV002 12/12 A2987 RMK AO2 P0001 T01220122 RVRNO
KAIK 
19nm SW 
271135Z AUTO 16003KT 1 1/4SM -RA BR OVC002 14/14 A2987 RMK AO2 P0001 T01390137
KCUB 
20nm E 
271131Z AUTO VRB03KT 3/4SM -RA VV002 20/13 A2987 RMK AO2 RAB1056E03B30 P0000 T02000128
KXNO 
21nm SE 
271133Z AUTO 00000KT 3/4SM -RA BR VV001 15/15 A2988 RMK AO2 RAB28 SLP121 RVRNO $
TAF
KCAE 
14nm E 
271021Z 2710/2806 11010KT 5SM -SHRA BR BKN003 OVC015 WS020/21040KT TEMPO 2712/2716 1SM SHRA BR SCT004 FM271600 20012G22KT P6SM VCSH SCT007 BKN015 FM271800 24016G24KT P6SM SCT015 BKN035 FM272000 25016G23KT P6SM SCT250
NOTAMs
Click for the latest NOTAMs
NOTAMs are issued by the DoD/FAA and will open in a separate window not controlled by AirNav.

 

 
 

Would you like to see your business listed on this page?

 If your business provides an interesting product or service to pilots, flight crews, aircraft, or users of the Sand Burr Airport, you should consider listing it here.  To start the listing process, click on the button below
 
Add a business
 

Other Pages about Sand Burr Airport

Update a link
 
Copyright © AirNav, LLC. All rights reserved. Privacy Policy  Contact